Time;durP1;ratioP1;P1;durP2;ratioP2;P2;SDS_P1;SDS_P2;PMS_P1;PMS_P2;Temp;Humidity;BMP_temperature;BMP_pressure;BME280_temperature;BME280_humidity;BME280_pressure;Samples;Min_cycle;Max_cycle;Signal;HPM_P1;HPM_P2
2021/08/03 00:02:15;;;;;;;3.07;2.37;;;;;;;16.06;65.76;101594.09;4968177;28;20229;-72
2021/08/03 00:04:43;;;;;;;4.43;2.03;;;;;;;15.92;66.42;101590.88;4967172;28;20665;-72
2021/08/03 00:07:10;;;;;;;2.73;2.20;;;;;;;15.82;66.15;101590.66;4969079;28;20271;-72
2021/08/03 00:09:39;;;;;;;3.10;2.40;;;;;;;15.70;66.91;101587.19;4966690;28;20213;-72
2021/08/03 00:12:07;;;;;;;4.90;2.83;;;;;;;15.69;67.63;101586.38;4968313;28;20218;-72
2021/08/03 00:14:36;;;;;;;5.17;2.40;;;;;;;15.68;67.17;101584.75;4967232;28;20213;-72
2021/08/03 00:17:04;;;;;;;6.97;2.37;;;;;;;15.64;67.84;101590.84;4968558;28;20221;-72
2021/08/03 00:19:30;;;;;;;3.53;2.33;;;;;;;15.54;68.10;101581.47;4967558;28;20241;-72
2021/08/03 00:21:57;;;;;;;3.73;2.13;;;;;;;15.70;67.99;101579.91;4969414;28;20214;-72
2021/08/03 00:24:24;;;;;;;4.97;2.20;;;;;;;15.72;67.06;101579.69;4968577;28;20893;-72
2021/08/03 00:26:50;;;;;;;4.10;2.30;;;;;;;15.69;67.62;101577.47;4970525;28;20287;-72
2021/08/03 00:29:17;;;;;;;5.43;2.43;;;;;;;15.60;67.51;101571.63;4968365;28;20268;-72
2021/08/03 00:31:45;;;;;;;2.73;2.30;;;;;;;15.56;66.54;101575.84;4965615;28;20221;-73
2021/08/03 00:34:12;;;;;;;2.90;2.17;;;;;;;15.45;68.35;101579.38;4966811;28;20233;-73
2021/08/03 00:36:38;;;;;;;3.23;2.10;;;;;;;15.40;68.44;101577.38;4965662;28;20217;-72
2021/08/03 00:39:05;;;;;;;3.30;2.47;;;;;;;15.41;67.87;101573.63;4966900;28;20236;-73
2021/08/03 00:41:38;;;;;;;3.80;2.20;;;;;;;15.43;68.79;101587.69;4965104;28;20624;-73
2021/08/03 00:44:05;;;;;;;4.30;2.47;;;;;;;15.50;67.96;101582.16;4970385;28;20216;-73
2021/08/03 00:46:31;;;;;;;3.10;2.03;;;;;;;15.43;68.75;101578.78;4971730;28;20268;-73
2021/08/03 00:48:59;;;;;;;4.50;2.30;;;;;;;15.51;67.66;101579.25;4970750;28;20257;-73
2021/08/03 00:51:27;;;;;;;4.40;2.00;;;;;;;15.39;68.63;101578.44;4968208;28;20283;-73
2021/08/03 00:53:54;;;;;;;4.80;2.03;;;;;;;15.26;69.99;101570.63;4970352;28;20223;-73
2021/08/03 00:56:20;;;;;;;4.27;2.40;;;;;;;15.09;70.31;101575.88;4969644;28;20303;-73
2021/08/03 00:58:46;;;;;;;2.53;1.80;;;;;;;14.88;71.68;101565.72;4971127;28;20718;-73
2021/08/03 01:01:13;;;;;;;4.27;1.90;;;;;;;14.91;70.06;101566.06;4969020;28;20271;-73
2021/08/03 01:03:39;;;;;;;3.10;2.30;;;;;;;14.90;70.63;101564.44;4970329;28;20253;-73
2021/08/03 01:06:13;;;;;;;3.20;2.20;;;;;;;14.71;71.73;101562.88;4973711;28;20214;-73
2021/08/03 01:08:45;;;;;;;5.57;2.60;;;;;;;14.74;71.46;101565.13;4969053;28;20268;-73
2021/08/03 01:11:14;;;;;;;5.57;2.37;;;;;;;14.11;73.26;101569.16;4970607;28;20670;-73
2021/08/03 01:13:51;;;;;;;3.33;2.57;;;;;;;14.14;73.53;101565.19;4970118;28;20213;-73
2021/08/03 01:16:21;;;;;;;6.63;2.03;;;;;;;14.45;72.34;101571.38;4968992;28;20232;-73
2021/08/03 01:18:51;;;;;;;4.87;2.27;;;;;;;14.44;72.19;101573.25;4968400;28;20234;-73
2021/08/03 01:21:36;;;;;;;6.10;2.80;;;;;;;13.86;74.69;101573.84;4971147;28;20218;-73
2021/08/03 01:24:14;;;;;;;3.47;2.97;;;;;;;13.69;75.56;101564.75;4969429;28;20214;-73
2021/08/03 01:27:17;;;;;;;4.40;2.73;;;;;;;13.61;75.87;101563.22;4971049;28;20616;-73
2021/08/03 01:29:45;;;;;;;4.67;2.27;;;;;;;13.76;74.91;101557.44;4951293;28;20220;-73
2021/08/03 01:32:15;;;;;;;7.57;2.70;;;;;;;13.87;74.71;101558.56;4970609;28;20619;-73
2021/08/03 01:34:43;;;;;;;5.57;2.50;;;;;;;13.95;73.98;101563.59;4970043;28;20246;-73
2021/08/03 01:37:11;;;;;;;6.33;2.60;;;;;;;13.92;74.33;101561.38;4970653;28;20221;-73
2021/08/03 01:39:40;;;;;;;5.00;2.47;;;;;;;14.25;73.18;101564.41;4970740;28;20641;-73
2021/08/03 01:42:08;;;;;;;4.67;2.73;;;;;;;14.34;72.64;101563.03;4970204;28;20225;-73
2021/08/03 01:44:35;;;;;;;5.00;2.73;;;;;;;14.40;72.51;101561.28;4969182;28;20273;-73
2021/08/03 01:47:05;;;;;;;4.80;3.07;;;;;;;14.61;71.42;101562.63;4971247;28;20249;-73
2021/08/03 01:49:35;;;;;;;3.17;2.70;;;;;;;13.96;74.49;101557.16;4967651;28;20229;-73
2021/08/03 01:52:02;;;;;;;4.33;3.07;;;;;;;14.09;74.01;101573.94;4969352;28;20794;-73
2021/08/03 01:54:30;;;;;;;5.63;2.93;;;;;;;14.23;73.38;101569.22;4970095;28;20275;-73
2021/08/03 01:56:57;;;;;;;4.07;2.83;;;;;;;14.25;72.68;101568.97;4969784;28;20300;-73
2021/08/03 01:59:23;;;;;;;5.40;2.90;;;;;;;14.38;71.36;101556.16;4972389;28;20696;-73
2021/08/03 02:01:52;;;;;;;3.40;2.60;;;;;;;14.49;71.54;101573.41;4969219;28;20579;-73
2021/08/03 02:04:21;;;;;;;4.83;2.50;;;;;;;14.57;71.23;101567.66;4971454;28;20229;-73
2021/08/03 02:06:48;;;;;;;3.90;2.70;;;;;;;14.55;70.55;101563.56;4968187;28;20226;-73
2021/08/03 02:09:15;;;;;;;5.33;2.43;;;;;;;14.64;70.28;101556.81;4970780;28;20276;-73
2021/08/03 02:11:41;;;;;;;5.63;2.50;;;;;;;14.48;72.07;101562.84;4970925;28;20733;-73
2021/08/03 02:14:08;;;;;;;4.30;2.70;;;;;;;14.67;71.15;101553.66;4969368;28;20249;-73
2021/08/03 02:16:34;;;;;;;4.10;2.70;;;;;;;14.83;70.70;101550.25;4970182;28;20232;-73
2021/08/03 02:19:02;;;;;;;3.40;2.80;;;;;;;14.88;70.47;101553.09;4966755;28;20244;-74
2021/08/03 02:21:30;;;;;;;6.13;2.97;;;;;;;14.85;70.09;101552.72;4969966;28;20296;-74
2021/08/03 02:23:57;;;;;;;6.20;3.00;;;;;;;14.89;69.89;101553.91;4967968;28;20635;-74
2021/08/03 02:26:24;;;;;;;6.10;3.47;;;;;;;14.86;68.92;101552.47;4968902;28;20254;-74
2021/08/03 02:28:50;;;;;;;5.23;3.60;;;;;;;14.87;69.15;101559.53;4968762;28;20213;-74
2021/08/03 02:31:22;;;;;;;5.37;3.03;;;;;;;14.87;68.18;101562.22;4968262;28;20682;-74
2021/08/03 02:33:54;;;;;;;4.40;3.53;;;;;;;14.75;70.26;101568.66;4970943;28;20699;-74
2021/08/03 02:36:21;;;;;;;5.70;3.47;;;;;;;14.68;69.87;101566.03;4967099;28;20656;-74
2021/08/03 02:38:51;;;;;;;3.97;2.90;;;;;;;14.71;68.74;101558.31;4969865;28;20276;-74
2021/08/03 02:41:18;;;;;;;6.83;3.47;;;;;;;14.67;69.18;101554.47;4967863;28;20649;-74
2021/08/03 02:43:46;;;;;;;3.20;2.70;;;;;;;14.65;69.37;101566.53;4966719;28;20626;-74
2021/08/03 02:46:15;;;;;;;8.37;3.37;;;;;;;14.53;71.19;101563.81;4970280;28;20219;-73
2021/08/03 02:48:41;;;;;;;4.97;3.13;;;;;;;14.18;72.78;101566.38;4970931;28;20664;-73
2021/08/03 02:51:08;;;;;;;7.33;3.13;;;;;;;13.82;74.04;101572.66;4968127;28;20224;-73
2021/08/03 02:53:38;;;;;;;4.57;3.00;;;;;;;13.64;74.25;101570.81;4970272;28;20575;-73
2021/08/03 02:56:09;;;;;;;3.03;2.40;;;;;;;14.02;72.81;101567.84;4966987;28;20767;-73
2021/08/03 02:58:44;;;;;;;3.37;3.00;;;;;;;14.27;71.61;101575.75;4968821;28;20225;-74
2021/08/03 03:01:12;;;;;;;5.87;2.93;;;;;;;14.11;72.34;101574.53;4967082;28;20213;-74
2021/08/03 03:03:41;;;;;;;3.30;2.50;;;;;;;14.22;71.23;101575.59;4969727;28;20232;-73
2021/08/03 03:06:08;;;;;;;4.77;3.10;;;;;;;13.89;73.44;101569.88;4969569;28;20228;-74
2021/08/03 03:08:35;;;;;;;6.50;2.60;;;;;;;13.69;73.99;101570.94;4967507;28;20217;-74
2021/08/03 03:11:04;;;;;;;6.27;3.20;;;;;;;13.49;75.00;101575.75;4970923;28;20213;-74
2021/08/03 03:13:37;;;;;;;4.13;3.10;;;;;;;13.90;73.30;101568.84;4969270;28;20752;-74
2021/08/03 03:16:04;;;;;;;5.00;3.50;;;;;;;13.56;75.72;101573.78;4968278;28;20291;-74
2021/08/03 03:18:33;;;;;;;3.83;3.40;;;;;;;13.57;76.70;101567.38;4968408;28;20241;-74
2021/08/03 03:21:00;;;;;;;5.07;4.00;;;;;;;13.70;75.44;101561.84;4967115;28;20220;-74
2021/08/03 03:23:27;;;;;;;7.70;3.93;;;;;;;14.10;73.25;101566.69;4969228;28;20263;-74
2021/08/03 03:25:54;;;;;;;5.27;3.70;;;;;;;14.20;72.21;101566.13;4967336;28;20572;-74
2021/08/03 03:28:25;;;;;;;5.57;4.10;;;;;;;14.22;73.13;101564.03;4969092;28;20218;-74
2021/08/03 03:30:54;;;;;;;4.80;3.10;;;;;;;14.20;71.41;101566.13;4969911;28;20561;-74
2021/08/03 03:33:21;;;;;;;5.47;3.37;;;;;;;14.25;71.86;101560.91;4968765;28;20221;-74
2021/08/03 03:35:49;;;;;;;4.27;3.37;;;;;;;14.27;72.06;101566.88;4966866;28;20225;-74
2021/08/03 03:38:18;;;;;;;4.93;3.87;;;;;;;14.42;71.93;101567.25;4969703;28;20738;-74
2021/08/03 03:40:46;;;;;;;4.47;3.07;;;;;;;14.36;69.55;101568.19;4967707;28;20216;-74
2021/08/03 03:43:12;;;;;;;5.00;3.50;;;;;;;14.31;69.95;101559.97;4967939;28;20284;-74
2021/08/03 03:45:39;;;;;;;7.53;3.53;;;;;;;14.17;71.80;101559.34;4965287;28;20224;-74
2021/08/03 03:48:11;;;;;;;4.20;3.33;;;;;;;14.26;71.27;101555.31;4966162;28;20624;-74
2021/08/03 03:50:42;;;;;;;4.83;3.00;;;;;;;14.27;70.86;101558.81;4965979;28;21009;-74
2021/08/03 03:53:10;;;;;;;4.53;3.13;;;;;;;14.29;70.86;101551.34;4966677;28;20233;-74
2021/08/03 03:55:37;;;;;;;5.17;3.07;;;;;;;14.36;70.98;101557.44;4968000;28;20287;-74
2021/08/03 03:58:04;;;;;;;4.03;3.00;;;;;;;14.40;70.46;101562.13;4968325;28;20245;-74
2021/08/03 04:00:34;;;;;;;3.37;2.90;;;;;;;14.44;69.92;101565.19;4961842;28;20249;-74
2021/08/03 04:03:02;;;;;;;5.37;3.00;;;;;;;14.40;70.42;101556.75;4945789;28;20269;-74
2021/08/03 04:05:30;;;;;;;3.80;2.90;;;;;;;14.40;70.41;101556.75;4945622;28;20870;-74
2021/08/03 04:07:57;;;;;;;4.97;2.60;;;;;;;14.46;70.00;101559.56;4945777;28;20247;-74
2021/08/03 04:10:31;;;;;;;4.70;3.40;;;;;;;14.38;72.47;101558.84;4946767;28;20697;-74
2021/08/03 04:12:58;;;;;;;4.07;3.10;;;;;;;13.45;75.87;101561.94;4951367;28;20241;-74
2021/08/03 04:15:25;;;;;;;3.57;3.13;;;;;;;13.70;74.81;101550.28;4967153;28;20214;-76
2021/08/03 04:17:51;;;;;;;3.40;2.73;;;;;;;14.17;71.44;101551.28;4968828;28;20217;-74
2021/08/03 04:20:17;;;;;;;3.93;2.90;;;;;;;14.38;70.73;101547.28;4966217;28;20372;-74
2021/08/03 04:22:45;;;;;;;5.10;3.60;;;;;;;14.35;71.23;101542.34;4971090;28;20212;-74
2021/08/03 04:25:12;;;;;;;4.40;2.90;;;;;;;14.47;70.68;101543.22;4970024;28;20225;-74
2021/08/03 04:27:38;;;;;;;9.93;3.20;;;;;;;14.43;71.37;101550.88;4969829;28;20271;-74
2021/08/03 04:30:06;;;;;;;3.83;3.20;;;;;;;14.49;71.37;101548.38;4970306;28;20209;-75
2021/08/03 04:32:32;;;;;;;6.00;3.83;;;;;;;14.62;71.33;101545.47;4974568;28;20777;-79
2021/08/03 04:34:59;;;;;;;5.27;2.80;;;;;;;14.69;71.17;101548.84;4973044;28;20236;-79
2021/08/03 04:37:25;;;;;;;4.80;3.53;;;;;;;14.69;71.34;101549.69;4974137;28;20237;-79
2021/08/03 04:39:53;;;;;;;4.60;2.90;;;;;;;14.70;71.49;101545.94;4976635;28;20242;-79
2021/08/03 04:42:19;;;;;;;4.40;3.50;;;;;;;14.76;70.69;101552.25;4976887;28;20695;-79
2021/08/03 04:44:46;;;;;;;4.87;3.40;;;;;;;14.84;70.79;101548.38;4974953;28;20209;-79
2021/08/03 04:47:12;;;;;;;5.80;3.40;;;;;;;14.87;70.77;101547.94;4977959;28;20231;-79
2021/08/03 04:49:39;;;;;;;5.43;3.77;;;;;;;14.92;71.68;101553.44;4974164;28;20228;-79
2021/08/03 04:52:06;;;;;;;5.27;3.87;;;;;;;15.12;70.77;101545.84;4975183;28;20705;-79
2021/08/03 04:54:32;;;;;;;5.27;3.60;;;;;;;15.29;70.49;101544.03;4973858;28;20220;-79
2021/08/03 04:57:00;;;;;;;4.93;3.87;;;;;;;15.22;70.49;101542.53;4974666;28;20860;-79
2021/08/03 04:59:26;;;;;;;5.37;3.90;;;;;;;15.38;70.13;101547.19;4977561;28;20318;-79
2021/08/03 05:01:53;;;;;;;6.07;4.38;;;;;;;15.34;70.78;101545.19;4975782;28;20486;-79
2021/08/03 05:04:19;;;;;;;7.40;4.43;;;;;;;15.42;70.18;101550.22;4971788;28;20229;-78
2021/08/03 05:06:46;;;;;;;4.53;3.83;;;;;;;15.52;69.72;101545.88;4975773;28;20261;-79
2021/08/03 05:09:12;;;;;;;4.47;3.50;;;;;;;15.52;70.08;101545.88;4975535;28;20226;-79
2021/08/03 05:11:38;;;;;;;5.70;3.80;;;;;;;15.64;69.93;101540.47;4973183;28;20217;-79
2021/08/03 05:14:06;;;;;;;4.67;3.60;;;;;;;15.85;68.42;101537.09;4977857;28;20205;-79
2021/08/03 05:16:33;;;;;;;5.43;4.00;;;;;;;15.86;69.02;101540.63;4974931;28;20237;-79
2021/08/03 05:18:59;;;;;;;7.93;3.60;;;;;;;15.96;68.21;101545.38;4964765;28;20236;-78
2021/08/03 05:21:26;;;;;;;4.70;3.50;;;;;;;15.87;68.48;101550.34;4972978;28;20225;-78
2021/08/03 05:23:52;;;;;;;3.97;3.40;;;;;;;15.92;68.14;101541.53;4971919;28;20244;-79
2021/08/03 05:26:20;;;;;;;4.60;3.30;;;;;;;16.10;67.33;101544.03;4972421;28;20213;-76
2021/08/03 05:28:46;;;;;;;5.87;2.80;;;;;;;16.07;67.58;101547.22;4974100;28;20296;-77
2021/08/03 05:31:14;;;;;;;5.37;3.03;;;;;;;16.16;67.58;101541.19;4971180;28;20209;-77
2021/08/03 05:33:41;;;;;;;4.97;3.13;;;;;;;16.09;68.31;101551.28;4969237;28;20627;-78
2021/08/03 05:36:07;;;;;;;5.47;3.50;;;;;;;16.14;68.35;101553.28;4972428;28;20780;-79
2021/08/03 05:38:34;;;;;;;5.80;3.10;;;;;;;16.42;67.56;101550.53;4971537;28;20633;-77
2021/08/03 05:41:00;;;;;;;5.90;3.63;;;;;;;16.12;68.95;101558.06;4969941;28;20237;-77
2021/08/03 05:43:27;;;;;;;5.10;3.20;;;;;;;16.38;68.00;101557.47;4972326;28;20664;-77
2021/08/03 05:45:53;;;;;;;4.33;3.00;;;;;;;16.55;67.44;101549.41;4968240;28;20215;-77
2021/08/03 05:48:21;;;;;;;5.60;3.27;;;;;;;16.76;66.84;101545.16;4968676;28;20680;-77
2021/08/03 05:50:47;;;;;;;5.13;3.40;;;;;;;16.81;66.30;101545.25;4970885;28;20323;-77
2021/08/03 05:53:14;;;;;;;5.77;3.10;;;;;;;16.76;65.80;101540.56;4971392;28;20240;-77
2021/08/03 05:55:41;;;;;;;3.63;2.70;;;;;;;16.61;66.02;101534.09;4970493;28;20316;-77
2021/08/03 05:58:07;;;;;;;6.83;3.10;;;;;;;16.51;66.55;101536.63;4967982;28;20237;-77
2021/08/03 06:00:34;;;;;;;4.20;3.37;;;;;;;16.63;67.19;101535.47;4971030;28;20748;-77
2021/08/03 06:03:00;;;;;;;3.70;2.70;;;;;;;16.68;67.09;101529.41;4970452;28;20216;-76
2021/08/03 06:05:30;;;;;;;4.57;2.67;;;;;;;16.86;65.86;101528.31;4970274;28;20679;-76
2021/08/03 06:07:58;;;;;;;5.20;2.57;;;;;;;16.99;65.25;101530.66;4968412;28;20216;-77
2021/08/03 06:10:27;;;;;;;3.87;2.27;;;;;;;17.28;64.76;101536.72;4970123;28;20215;-77
2021/08/03 06:12:55;;;;;;;3.73;2.47;;;;;;;17.45;63.68;101531.25;4968518;28;20347;-76
2021/08/03 06:15:22;;;;;;;8.03;2.47;;;;;;;17.45;63.21;101534.78;4970586;28;20223;-77
2021/08/03 06:17:51;;;;;;;4.73;2.27;;;;;;;17.45;63.97;101531.25;4971787;28;21142;-76
2021/08/03 06:20:17;;;;;;;5.60;2.40;;;;;;;17.32;64.67;101535.97;4969042;28;20242;-77
2021/08/03 06:22:45;;;;;;;5.03;2.43;;;;;;;17.24;64.14;101532.88;4970022;28;20226;-77
2021/08/03 06:25:14;;;;;;;3.20;2.10;;;;;;;18.12;63.62;101539.03;4967674;28;20656;-77
2021/08/03 06:27:41;;;;;;;3.43;1.97;;;;;;;17.79;61.71;101538.19;4967151;28;20220;-77
2021/08/03 06:30:09;;;;;;;3.33;2.23;;;;;;;18.26;61.44;101531.31;4968330;28;20261;-77
2021/08/03 06:32:36;;;;;;;4.23;2.43;;;;;;;18.42;61.11;101536.63;4964130;28;20224;-76
2021/08/03 06:35:02;;;;;;;4.00;1.87;;;;;;;18.77;61.28;101530.69;4966063;28;20240;-77
2021/08/03 06:37:29;;;;;;;4.23;1.97;;;;;;;19.01;59.74;101533.00;4968472;28;20221;-79
2021/08/03 06:39:57;;;;;;;4.63;1.80;;;;;;;18.82;59.76;101529.91;4972162;28;20244;-79
2021/08/03 06:42:32;;;;;;;3.57;1.83;;;;;;;19.21;56.35;101535.00;4970835;28;20216;-77
2021/08/03 06:45:02;;;;;;;2.73;1.87;;;;;;;18.49;59.63;101534.50;4969203;28;20390;-78
2021/08/03 06:47:36;;;;;;;3.50;1.60;;;;;;;19.08;57.82;101533.59;4970062;28;20795;-77
2021/08/03 06:50:04;;;;;;;1.70;1.40;;;;;;;18.82;55.97;101535.34;4968522;28;20300;-77
2021/08/03 06:52:34;;;;;;;3.87;1.60;;;;;;;18.24;57.25;101537.00;4967948;28;20232;-77
2021/08/03 06:55:05;;;;;;;1.80;1.30;;;;;;;18.23;58.47;101535.38;4968965;28;20226;-77
2021/08/03 06:57:33;;;;;;;2.90;1.87;;;;;;;18.16;58.21;101535.56;4968322;28;20247;-76
2021/08/03 07:00:03;;;;;;;1.70;1.30;;;;;;;18.68;57.33;101537.69;4968100;28;20341;-77
2021/08/03 07:02:30;;;;;;;2.10;1.20;;;;;;;19.00;56.12;101540.31;4967735;28;20213;-77
2021/08/03 07:04:58;;;;;;;3.83;1.30;;;;;;;19.28;54.94;101536.38;4967957;28;20236;-77
2021/08/03 07:07:25;;;;;;;3.27;1.57;;;;;;;19.54;54.69;101531.88;4969136;28;20217;-77
2021/08/03 07:09:53;;;;;;;4.33;1.10;;;;;;;19.63;54.34;101524.91;4967891;28;20221;-78
2021/08/03 07:12:22;;;;;;;3.30;1.13;;;;;;;19.80;53.20;101529.28;4967862;28;20233;-77
2021/08/03 07:14:50;;;;;;;3.23;1.13;;;;;;;19.73;52.95;101531.44;4968334;28;20682;-77
2021/08/03 07:17:17;;;;;;;2.17;1.13;;;;;;;19.63;54.10;101524.91;4969659;28;20201;-77
2021/08/03 07:19:44;;;;;;;4.80;1.07;;;;;;;20.50;52.07;101527.75;4971689;28;20236;-77
2021/08/03 07:22:12;;;;;;;2.27;1.20;;;;;;;20.70;50.67;101533.16;4967363;28;20225;-77
2021/08/03 07:24:39;;;;;;;2.03;1.30;;;;;;;20.98;50.87;101533.69;4966686;28;20220;-78
2021/08/03 07:27:05;;;;;;;3.30;1.10;;;;;;;20.79;51.10;101528.00;4966873;28;20211;-78
2021/08/03 07:29:33;;;;;;;3.03;1.47;;;;;;;21.20;50.46;101531.41;4969544;28;20306;-79
2021/08/03 07:31:59;;;;;;;6.13;1.33;;;;;;;21.03;50.82;101531.75;4965246;28;20704;-78
2021/08/03 07:34:26;;;;;;;2.50;1.40;;;;;;;21.35;50.63;101534.13;4966503;28;20232;-77
2021/08/03 07:36:53;;;;;;;2.80;1.40;;;;;;;21.36;53.40;101532.22;4966787;28;20213;-78
2021/08/03 07:39:19;;;;;;;2.77;1.80;;;;;;;21.77;49.94;101527.41;4966415;28;20334;-78
2021/08/03 07:41:46;;;;;;;2.57;1.37;;;;;;;20.97;53.18;101521.19;4963063;28;20256;-78
2021/08/03 07:44:13;;;;;;;2.43;1.10;;;;;;;21.89;47.89;101519.69;4968019;28;20441;-77
2021/08/03 07:46:40;;;;;;;1.67;1.13;;;;;;;22.29;47.71;101515.09;4966409;28;20692;-77
2021/08/03 07:49:07;;;;;;;3.30;1.03;;;;;;;22.36;47.61;101518.31;4967369;28;20673;-77
2021/08/03 07:51:34;;;;;;;2.40;1.07;;;;;;;22.67;47.03;101510.66;4966130;28;20219;-77
2021/08/03 07:54:01;;;;;;;1.77;0.90;;;;;;;22.67;46.96;101507.94;4967909;28;20210;-77
2021/08/03 07:56:27;;;;;;;2.03;1.20;;;;;;;23.06;47.67;101515.19;4967693;28;20249;-77
2021/08/03 07:58:54;;;;;;;3.53;1.07;;;;;;;22.97;45.80;101515.00;4968157;28;20667;-77
2021/08/03 08:01:20;;;;;;;2.37;1.10;;;;;;;23.17;45.44;101513.97;4966631;28;20333;-77
2021/08/03 08:03:48;;;;;;;4.00;1.17;;;;;;;23.38;46.04;101509.09;4967839;28;20234;-77
2021/08/03 08:06:15;;;;;;;3.03;1.40;;;;;;;23.65;44.70;101506.56;4969884;28;20218;-77
2021/08/03 08:08:43;;;;;;;2.90;1.47;;;;;;;22.57;46.89;101516.19;4966668;28;20225;-77
2021/08/03 08:11:09;;;;;;;2.13;1.20;;;;;;;23.13;45.35;101521.91;4967873;28;20646;-77
2021/08/03 08:13:36;;;;;;;2.83;1.00;;;;;;;23.76;43.71;101518.94;4966571;28;20209;-77
2021/08/03 08:16:02;;;;;;;2.00;1.00;;;;;;;23.27;42.64;101521.22;4965153;28;20218;-77
2021/08/03 08:18:29;;;;;;;1.97;1.13;;;;;;;22.84;43.67;101527.38;4965791;28;20221;-77
2021/08/03 08:20:57;;;;;;;2.60;1.30;;;;;;;23.11;43.84;101517.84;4968070;28;20260;-77
2021/08/03 08:23:23;;;;;;;3.13;0.90;;;;;;;23.27;44.25;101511.13;4968817;28;20767;-77
2021/08/03 08:25:51;;;;;;;2.90;0.97;;;;;;;23.21;43.69;101509.53;4965060;28;20669;-77
2021/08/03 08:28:18;;;;;;;2.63;1.10;;;;;;;23.46;45.17;101511.13;4966525;28;20217;-77
2021/08/03 08:30:44;;;;;;;5.47;1.60;;;;;;;22.19;44.46;101509.72;4965840;28;20222;-77
2021/08/03 08:33:11;;;;;;;2.23;1.13;;;;;;;23.34;43.21;101516.19;4966313;28;20210;-77
2021/08/03 08:35:38;;;;;;;2.07;1.17;;;;;;;22.48;43.94;101516.00;4965747;28;20218;-78
2021/08/03 08:38:06;;;;;;;3.93;1.27;;;;;;;22.83;43.36;101509.44;4966664;28;20218;-77
2021/08/03 08:40:33;;;;;;;2.50;1.13;;;;;;;21.94;46.22;101510.69;4965715;28;20279;-77
2021/08/03 08:42:59;;;;;;;2.43;1.30;;;;;;;22.90;46.35;101509.91;4967919;28;20580;-77
2021/08/03 08:45:27;;;;;;;1.27;1.17;;;;;;;23.47;41.52;101508.09;4967095;28;20252;-77
2021/08/03 08:47:54;;;;;;;2.17;1.60;;;;;;;23.71;42.58;101501.81;4967094;28;20822;-77
2021/08/03 08:50:22;;;;;;;3.97;1.27;;;;;;;23.34;43.98;101502.56;4968670;28;20227;-77
2021/08/03 08:52:50;;;;;;;3.37;1.30;;;;;;;22.66;41.97;101500.06;4966325;28;20239;-77
2021/08/03 08:55:18;;;;;;;2.47;1.00;;;;;;;22.51;43.50;101501.03;4965367;28;20222;-77
2021/08/03 08:57:47;;;;;;;2.93;1.40;;;;;;;22.06;46.45;101505.72;4965539;28;20338;-77
2021/08/03 09:00:14;;;;;;;2.70;1.13;;;;;;;22.32;46.25;101498.16;4966242;28;20264;-77
2021/08/03 09:02:41;;;;;;;3.57;1.20;;;;;;;22.56;43.50;101499.03;4967586;28;20213;-77
2021/08/03 09:05:09;;;;;;;3.23;1.20;;;;;;;22.43;43.63;101494.25;4968853;28;20233;-77
2021/08/03 09:07:47;;;;;;;2.13;1.43;;;;;;;22.25;44.77;101500.44;4968830;28;20771;-77
2021/08/03 09:10:31;;;;;;;2.80;1.30;;;;;;;21.51;46.59;101506.88;4967506;28;20708;-77
2021/08/03 09:13:00;;;;;;;1.77;1.37;;;;;;;22.19;43.58;101507.81;4969845;28;20228;-77
2021/08/03 09:15:26;;;;;;;3.33;1.40;;;;;;;22.53;44.16;101502.34;4967033;28;20209;-77
2021/08/03 09:17:53;;;;;;;2.87;1.50;;;;;;;22.39;44.11;101509.56;4967103;28;20225;-76
2021/08/03 09:20:20;;;;;;;4.53;1.80;;;;;;;22.44;44.31;101505.97;4967647;28;20286;-77
2021/08/03 09:22:48;;;;;;;3.23;1.83;;;;;;;22.31;43.76;101502.00;4970685;28;20263;-78
2021/08/03 09:25:15;;;;;;;2.00;1.40;;;;;;;21.49;47.60;101506.34;4967202;28;20209;-77
2021/08/03 09:27:45;;;;;;;2.47;1.63;;;;;;;22.10;44.89;101514.13;4970355;28;20217;-77
2021/08/03 09:30:29;;;;;;;2.83;1.70;;;;;;;21.91;44.65;101512.06;4968922;28;20226;-77
2021/08/03 09:32:56;;;;;;;3.67;1.67;;;;;;;21.85;45.49;101513.22;4970500;28;20257;-76
2021/08/03 09:35:24;;;;;;;2.47;1.57;;;;;;;21.68;45.07;101510.03;4970167;28;20280;-77
2021/08/03 09:37:52;;;;;;;5.63;1.57;;;;;;;21.85;45.77;101512.38;4970588;28;20688;-78
2021/08/03 09:40:20;;;;;;;4.47;1.70;;;;;;;22.51;46.64;101506.47;4970308;28;20599;-78
2021/08/03 09:42:59;;;;;;;5.00;2.07;;;;;;;22.26;43.68;101508.31;4970686;28;20573;-77
2021/08/03 09:45:26;;;;;;;4.93;1.47;;;;;;;22.10;45.35;101512.22;4967369;28;20223;-77
2021/08/03 09:47:55;;;;;;;4.47;1.57;;;;;;;22.10;46.21;101514.13;4969114;28;20648;-77
2021/08/03 09:50:22;;;;;;;3.83;1.80;;;;;;;21.76;47.00;101522.25;4968171;28;20226;-77
2021/08/03 09:52:49;;;;;;;2.37;1.47;;;;;;;21.85;46.88;101518.66;4968511;28;20229;-77
2021/08/03 09:55:17;;;;;;;4.10;1.50;;;;;;;22.12;46.63;101509.25;4968305;28;20352;-77
2021/08/03 09:57:45;;;;;;;3.20;2.00;;;;;;;22.30;46.56;101511.25;4968029;28;20284;-77
2021/08/03 10:00:34;;;;;;;3.17;1.80;;;;;;;21.70;47.94;101514.09;4970025;28;20220;-77
2021/08/03 10:03:01;;;;;;;2.73;2.20;;;;;;;21.25;48.55;101517.00;4970658;28;20209;-77
2021/08/03 10:05:27;;;;;;;3.27;2.00;;;;;;;21.54;47.93;101514.47;4970406;28;20300;-77
2021/08/03 10:07:54;;;;;;;2.67;1.93;;;;;;;21.63;46.21;101519.03;4967940;28;21127;-77
2021/08/03 10:10:21;;;;;;;2.77;2.30;;;;;;;21.37;48.05;101509.38;4970649;28;20228;-78
2021/08/03 10:12:48;;;;;;;3.83;1.80;;;;;;;20.53;50.80;101508.22;4969943;28;20673;-78
2021/08/03 10:15:14;;;;;;;2.23;1.37;;;;;;;21.15;49.26;101510.53;4967492;28;20220;-77
2021/08/03 10:17:42;;;;;;;3.00;1.87;;;;;;;21.28;47.96;101498.28;4969850;28;20221;-77
2021/08/03 10:20:11;;;;;;;3.13;2.30;;;;;;;21.15;47.73;101507.81;4967175;28;20232;-77
2021/08/03 10:22:40;;;;;;;3.70;2.17;;;;;;;20.92;49.03;101507.59;4969519;28;20267;-77
2021/08/03 10:25:10;;;;;;;2.97;2.00;;;;;;;21.21;47.17;101499.63;4969032;28;20292;-77
2021/08/03 10:27:45;;;;;;;4.20;1.73;;;;;;;21.35;47.43;101501.50;4968202;28;20256;-77
2021/08/03 10:30:34;;;;;;;4.70;1.87;;;;;;;21.03;46.46;101501.06;4965650;28;20331;-77
2021/08/03 10:33:05;;;;;;;4.80;1.80;;;;;;;20.76;47.91;101509.53;4966597;28;20268;-77
2021/08/03 10:35:39;;;;;;;4.33;2.40;;;;;;;21.00;46.39;101507.84;4966036;28;20232;-77
2021/08/03 10:38:09;;;;;;;4.53;2.10;;;;;;;20.83;47.68;101508.19;4970114;28;20213;-77
2021/08/03 10:41:01;;;;;;;3.20;2.00;;;;;;;20.70;47.47;101500.56;4968513;28;21017;-77
2021/08/03 10:43:48;;;;;;;3.03;1.90;;;;;;;21.15;47.82;101510.53;4969914;28;20221;-77
2021/08/03 10:46:34;;;;;;;5.03;1.97;;;;;;;21.42;46.51;101515.59;4967748;28;20212;-77
2021/08/03 10:49:01;;;;;;;4.63;2.10;;;;;;;21.24;49.50;101512.66;4967474;28;20280;-77
2021/08/03 10:51:38;;;;;;;4.10;1.90;;;;;;;21.14;47.51;101513.50;4968811;28;20208;-77
2021/08/03 10:54:07;;;;;;;5.03;1.63;;;;;;;21.04;47.67;101508.91;4968159;28;20205;-77
2021/08/03 10:57:14;;;;;;;5.00;2.03;;;;;;;21.25;47.25;101509.72;4969537;28;20247;-77
2021/08/03 10:59:42;;;;;;;3.23;1.87;;;;;;;20.78;49.64;101505.47;4968905;28;20204;-77
2021/08/03 11:02:09;;;;;;;2.80;1.67;;;;;;;21.25;47.32;101506.16;4969364;28;20258;-77
2021/08/03 11:04:59;;;;;;;3.20;2.00;;;;;;;21.29;47.03;101510.75;4966390;28;20236;-77
2021/08/03 11:07:30;;;;;;;2.03;1.80;;;;;;;21.12;47.22;101504.84;4967878;28;20213;-77
2021/08/03 11:09:58;;;;;;;2.43;1.87;;;;;;;21.34;46.78;101504.47;4968826;28;20300;-77
2021/08/03 11:12:35;;;;;;;2.73;1.30;;;;;;;21.23;46.46;101509.16;4968127;28;20326;-77
2021/08/03 11:15:35;;;;;;;1.97;1.47;;;;;;;20.77;47.96;101505.72;4968317;28;20258;-77
2021/08/03 11:18:02;;;;;;;10.03;1.63;;;;;;;20.81;51.52;101506.81;4965780;28;20271;-77
2021/08/03 11:21:04;;;;;;;2.90;2.00;;;;;;;20.97;48.65;101502.16;4962137;28;20990;-77
2021/08/03 11:24:09;;;;;;;2.50;1.37;;;;;;;21.33;46.69;101498.25;4965442;28;20629;-77
2021/08/03 11:26:38;;;;;;;2.73;1.93;;;;;;;20.10;50.23;101510.38;4967721;28;20222;-77
2021/08/03 11:29:10;;;;;;;3.67;1.80;;;;;;;20.40;49.58;101506.84;4969129;28;20221;-77
2021/08/03 11:31:55;;;;;;;3.27;1.80;;;;;;;20.03;49.33;101501.66;4966756;28;20232;-77
2021/08/03 11:34:27;;;;;;;3.63;1.57;;;;;;;20.28;52.49;101501.69;4968227;28;20232;-77